createdAt,value
2023-05-23T00:02:02.586Z,18.52
2023-05-23T00:04:34.074Z,18.53
2023-05-23T00:07:05.973Z,18.53
2023-05-23T00:09:37.465Z,18.48
2023-05-23T00:12:09.263Z,18.45
2023-05-23T00:14:40.764Z,18.42
2023-05-23T00:17:12.661Z,18.35
2023-05-23T00:19:44.195Z,18.30
2023-05-23T00:22:15.930Z,18.25
2023-05-23T00:24:47.410Z,18.20
2023-05-23T00:27:19.006Z,18.16
2023-05-23T00:29:50.499Z,18.13
2023-05-23T00:32:22.317Z,18.13
2023-05-23T00:34:54.247Z,18.09
2023-05-23T00:37:25.732Z,18.05
2023-05-23T00:39:57.409Z,18.00
2023-05-23T00:42:28.900Z,17.99
2023-05-23T00:45:00.727Z,17.91
2023-05-23T00:47:32.257Z,17.87
2023-05-23T00:50:03.782Z,17.81
2023-05-23T00:52:35.296Z,17.76
2023-05-23T00:55:07.098Z,17.75
2023-05-23T00:57:38.612Z,17.67
2023-05-23T01:00:10.476Z,17.58
2023-05-23T01:02:42.632Z,17.59
2023-05-23T01:05:14.543Z,17.52
2023-05-23T01:07:46.456Z,17.55
2023-05-23T01:10:17.958Z,17.54
2023-05-23T01:12:49.790Z,17.52
2023-05-23T01:15:21.271Z,17.53
2023-05-23T01:17:53.195Z,17.55
2023-05-23T01:20:24.689Z,17.56
2023-05-23T01:22:56.165Z,17.55
2023-05-23T01:25:27.658Z,17.53
2023-05-23T01:27:59.306Z,17.56
2023-05-23T01:30:30.838Z,17.56
2023-05-23T01:33:02.810Z,17.57
2023-05-23T01:35:34.417Z,17.58
2023-05-23T01:38:05.914Z,17.56
2023-05-23T01:40:37.413Z,17.57
2023-05-23T01:43:08.899Z,17.55
2023-05-23T01:45:40.562Z,17.52
2023-05-23T01:48:12.295Z,17.52
2023-05-23T01:50:44.115Z,17.53
2023-05-23T01:53:15.606Z,17.50
2023-05-23T01:55:47.437Z,17.53
2023-05-23T01:58:18.954Z,17.52
2023-05-23T02:00:50.862Z,17.50
2023-05-23T02:03:22.525Z,17.41
2023-05-23T02:05:54.379Z,17.36
2023-05-23T02:08:26.141Z,17.36
2023-05-23T02:10:57.626Z,17.27
2023-05-23T02:13:29.124Z,17.29
2023-05-23T02:16:00.615Z,17.32
2023-05-23T02:18:32.492Z,17.33
2023-05-23T02:21:04.147Z,17.31
2023-05-23T02:23:35.637Z,17.35
2023-05-23T02:26:07.120Z,17.30
2023-05-23T02:28:38.622Z,17.32
2023-05-23T02:31:10.171Z,17.31
2023-05-23T02:33:42.376Z,17.30
2023-05-23T02:36:14.185Z,17.33
2023-05-23T02:38:46.036Z,17.35
2023-05-23T02:41:17.828Z,17.31
2023-05-23T02:43:49.295Z,17.33
2023-05-23T02:46:21.152Z,17.38
2023-05-23T02:48:52.693Z,17.37
2023-05-23T02:51:24.186Z,17.38
2023-05-23T02:53:55.664Z,17.37
2023-05-23T02:56:27.514Z,17.34
2023-05-23T02:58:58.999Z,17.35
2023-05-23T03:01:30.529Z,17.35
2023-05-23T03:04:02.561Z,17.33
2023-05-23T03:06:34.303Z,17.32
2023-05-23T03:09:06.278Z,17.30
2023-05-23T03:11:37.877Z,17.28
2023-05-23T03:14:09.790Z,17.26
2023-05-23T03:16:41.446Z,17.25
2023-05-23T03:19:13.215Z,17.25
2023-05-23T03:21:44.984Z,17.30
2023-05-23T03:24:16.928Z,17.32
2023-05-23T03:26:48.571Z,17.34
2023-05-23T03:29:20.455Z,17.33
2023-05-23T03:31:52.122Z,17.37
2023-05-23T03:34:23.801Z,17.31
2023-05-23T03:36:55.617Z,17.34
2023-05-23T03:39:27.545Z,17.35
2023-05-23T03:41:59.379Z,17.28
2023-05-23T03:44:31.190Z,17.20
2023-05-23T03:47:03.082Z,17.14
2023-05-23T03:49:34.709Z,17.12
2023-05-23T03:52:06.751Z,17.12
2023-05-23T03:54:38.367Z,17.06
2023-05-23T03:57:10.298Z,16.98
2023-05-23T03:59:41.887Z,16.94
2023-05-23T04:02:13.943Z,16.94
2023-05-23T04:04:46.088Z,16.92
2023-05-23T04:07:18.058Z,16.93
2023-05-23T04:09:49.821Z,16.93
2023-05-23T04:12:21.444Z,16.87
2023-05-23T04:14:53.045Z,16.91
2023-05-23T04:17:24.699Z,17.02
2023-05-23T04:19:56.635Z,17.12
2023-05-23T04:22:28.241Z,17.21
2023-05-23T04:24:59.926Z,17.28
2023-05-23T04:27:31.424Z,17.35
2023-05-23T04:30:03.270Z,17.42
2023-05-23T04:32:34.789Z,17.46
2023-05-23T04:35:06.648Z,17.48
2023-05-23T04:37:40.186Z,17.44
2023-05-23T04:40:11.827Z,17.42
2023-05-23T04:42:43.430Z,17.42
2023-05-23T04:45:14.901Z,17.45
2023-05-23T04:47:46.523Z,17.41
2023-05-23T04:50:18.008Z,17.46
2023-05-23T04:52:49.515Z,17.44
2023-05-23T04:55:21.213Z,17.40
2023-05-23T04:57:53.065Z,17.33
2023-05-23T05:00:24.546Z,17.36
2023-05-23T05:02:56.062Z,17.42
2023-05-23T05:05:27.536Z,17.38
2023-05-23T05:07:59.222Z,17.34
2023-05-23T05:10:30.955Z,17.33
2023-05-23T05:13:02.449Z,17.35
2023-05-23T05:15:33.947Z,17.33
2023-05-23T05:18:05.465Z,17.35
2023-05-23T05:20:36.990Z,17.34
2023-05-23T05:23:08.462Z,17.35
2023-05-23T05:25:39.955Z,17.31
2023-05-23T05:28:11.429Z,17.33
2023-05-23T05:30:43.290Z,17.33
2023-05-23T05:33:15.080Z,17.33
2023-05-23T05:35:46.612Z,17.28
2023-05-23T05:38:18.577Z,17.23
2023-05-23T05:40:50.413Z,17.26
2023-05-23T05:43:22.448Z,17.27
2023-05-23T05:45:54.002Z,17.29
2023-05-23T05:48:25.850Z,17.32
2023-05-23T05:50:57.324Z,17.34
2023-05-23T05:53:29.209Z,17.42
2023-05-23T05:56:00.707Z,17.49
2023-05-23T05:58:32.763Z,17.57
2023-05-23T06:01:04.273Z,17.56
2023-05-23T06:03:35.906Z,17.62
2023-05-23T06:06:07.555Z,17.67
2023-05-23T06:08:39.061Z,17.78
2023-05-23T06:11:10.879Z,17.90
2023-05-23T06:13:42.816Z,18.00
2023-05-23T06:16:14.720Z,18.15
2023-05-23T06:18:46.250Z,18.28
2023-05-23T06:21:18.139Z,18.36
2023-05-23T06:23:49.622Z,18.51
2023-05-23T06:26:21.550Z,18.68
2023-05-23T06:28:53.033Z,18.89
2023-05-23T06:31:24.948Z,19.12
2023-05-23T06:33:56.528Z,19.41
2023-05-23T06:36:28.200Z,19.72
2023-05-23T06:38:59.854Z,20.30
2023-05-23T06:41:31.650Z,20.56
2023-05-23T06:44:03.329Z,20.97
2023-05-23T06:46:34.822Z,21.66
2023-05-23T06:49:14.725Z,21.52
2023-05-23T06:51:46.631Z,21.84
2023-05-23T06:54:18.511Z,22.38
2023-05-23T06:56:50.001Z,22.65
2023-05-23T06:59:21.495Z,22.90
2023-05-23T07:01:52.993Z,22.68
2023-05-23T07:04:24.877Z,22.80
2023-05-23T07:06:56.389Z,22.95
2023-05-23T07:09:28.149Z,23.56
2023-05-23T07:12:00.183Z,23.54
2023-05-23T07:14:31.690Z,23.32
2023-05-23T07:17:03.372Z,23.01
2023-05-23T07:19:34.974Z,22.79
2023-05-23T07:22:06.993Z,22.69
2023-05-23T07:24:38.515Z,22.42
2023-05-23T07:27:10.355Z,22.32
2023-05-23T07:29:41.848Z,22.11
2023-05-23T07:32:13.805Z,22.22
2023-05-23T07:34:45.308Z,22.34
2023-05-23T07:37:17.155Z,22.57
2023-05-23T07:39:48.965Z,22.61
2023-05-23T07:42:20.834Z,22.56
2023-05-23T07:44:52.546Z,23.21
2023-05-23T07:47:24.104Z,23.50
2023-05-23T07:49:55.945Z,23.40
2023-05-23T07:52:27.426Z,23.96
2023-05-23T07:54:59.265Z,23.10
2023-05-23T07:57:30.749Z,22.92
2023-05-23T08:00:02.609Z,23.33
2023-05-23T08:02:34.304Z,23.31
2023-05-23T08:05:06.108Z,23.36
2023-05-23T08:07:37.613Z,23.03
2023-05-23T08:10:09.419Z,23.29
2023-05-23T08:12:40.909Z,23.67
2023-05-23T08:15:12.400Z,24.02
2023-05-23T08:17:44.285Z,24.08
2023-05-23T08:20:15.834Z,24.58
2023-05-23T08:22:47.717Z,24.77
2023-05-23T08:25:19.213Z,24.69
2023-05-23T08:27:50.709Z,25.49
2023-05-23T08:30:22.181Z,25.34
2023-05-23T08:32:53.917Z,25.27
2023-05-23T08:35:25.433Z,25.58
2023-05-23T08:37:57.294Z,25.00
2023-05-23T08:40:29.271Z,25.21
2023-05-23T08:43:00.862Z,24.79
2023-05-23T08:45:32.587Z,25.67
2023-05-23T08:48:04.220Z,26.27
2023-05-23T08:50:35.869Z,25.92
2023-05-23T08:53:07.360Z,25.44
2023-05-23T08:55:38.971Z,25.73
2023-05-23T08:58:10.520Z,26.11
2023-05-23T09:00:42.513Z,26.43
2023-05-23T09:03:14.247Z,25.96
2023-05-23T09:05:46.016Z,25.39
2023-05-23T09:08:17.917Z,25.30
2023-05-23T09:10:49.572Z,24.88
2023-05-23T09:13:21.461Z,25.68
2023-05-23T09:15:53.014Z,25.43
2023-05-23T09:18:24.849Z,26.01
2023-05-23T09:20:56.352Z,26.08
2023-05-23T09:23:28.168Z,26.34
2023-05-23T09:25:59.648Z,26.62
2023-05-23T09:28:31.468Z,27.39
2023-05-23T09:31:02.959Z,27.82
2023-05-23T09:33:34.440Z,27.13
2023-05-23T09:36:05.965Z,26.83
2023-05-23T09:38:37.635Z,25.93
2023-05-23T09:41:09.398Z,25.24
2023-05-23T09:43:40.886Z,24.87
2023-05-23T09:46:12.617Z,24.35
2023-05-23T09:48:44.115Z,24.19
2023-05-23T09:51:15.953Z,24.23
2023-05-23T09:53:47.422Z,24.37
2023-05-23T09:56:19.110Z,24.10
2023-05-23T09:58:50.601Z,24.30
2023-05-23T10:01:22.466Z,24.81
2023-05-23T10:03:54.009Z,24.64
2023-05-23T10:06:25.928Z,24.67
2023-05-23T10:08:57.992Z,24.84
2023-05-23T10:11:29.896Z,24.80
2023-05-23T10:14:01.736Z,24.51
2023-05-23T10:16:33.238Z,24.47
2023-05-23T10:19:04.931Z,24.50
2023-05-23T10:21:36.417Z,25.47
2023-05-23T10:24:08.373Z,24.28
2023-05-23T10:26:39.942Z,25.01
2023-05-23T10:29:11.975Z,24.70
2023-05-23T10:31:43.565Z,24.50
2023-05-23T10:34:15.499Z,24.27
2023-05-23T10:36:47.463Z,24.39
2023-05-23T10:39:19.267Z,23.75
2023-05-23T10:41:51.138Z,22.98
2023-05-23T10:44:22.647Z,22.75
2023-05-23T10:46:54.788Z,22.70
2023-05-23T10:49:26.339Z,22.83
2023-05-23T10:51:58.371Z,22.55
2023-05-23T10:54:29.866Z,23.82
2023-05-23T10:57:01.638Z,24.29
2023-05-23T10:59:33.145Z,25.35
2023-05-23T11:02:04.852Z,26.07
2023-05-23T11:04:36.375Z,26.30
2023-05-23T11:07:08.109Z,26.25
2023-05-23T11:09:39.598Z,26.05
2023-05-23T11:12:11.083Z,26.25
2023-05-23T11:14:42.842Z,25.51
2023-05-23T11:17:14.359Z,24.78
2023-05-23T11:19:46.217Z,24.23
2023-05-23T11:22:17.718Z,23.73
2023-05-23T11:24:49.659Z,23.70
2023-05-23T11:27:21.147Z,22.83
2023-05-23T11:29:52.972Z,22.35
2023-05-23T11:32:24.568Z,22.52
2023-05-23T11:34:56.519Z,21.84
2023-05-23T11:37:28.236Z,21.66
2023-05-23T11:40:00.165Z,21.11
2023-05-23T11:42:32.085Z,21.25
2023-05-23T11:45:03.606Z,21.28
2023-05-23T11:47:35.131Z,21.13
2023-05-23T11:50:06.654Z,20.91
2023-05-23T11:52:38.153Z,20.84
2023-05-23T11:55:09.632Z,20.80
2023-05-23T11:57:41.161Z,21.27
2023-05-23T12:00:12.676Z,21.14
2023-05-23T12:02:44.515Z,21.46
2023-05-23T12:05:16.105Z,21.52
2023-05-23T12:07:48.265Z,21.81
2023-05-23T12:10:19.858Z,21.69
2023-05-23T12:12:51.377Z,21.47
2023-05-23T12:15:23.257Z,21.38
2023-05-23T12:17:55.130Z,21.39
2023-05-23T12:20:26.889Z,21.20
2023-05-23T12:22:58.386Z,21.18
2023-05-23T12:25:30.203Z,21.12
2023-05-23T12:28:01.716Z,20.95
2023-05-23T12:30:34.672Z,20.98
2023-05-23T12:33:06.200Z,20.83
2023-05-23T12:35:37.735Z,21.04
2023-05-23T12:38:09.825Z,20.71
2023-05-23T12:40:41.329Z,20.59
2023-05-23T12:43:12.878Z,20.34
2023-05-23T12:45:44.453Z,20.16
2023-05-23T12:48:16.339Z,20.21
2023-05-23T12:50:47.853Z,20.44
2023-05-23T12:53:19.352Z,20.99
2023-05-23T12:55:50.868Z,21.41
2023-05-23T12:58:22.404Z,21.27
2023-05-23T13:00:53.985Z,21.57
2023-05-23T13:03:25.695Z,21.96
2023-05-23T13:05:57.560Z,22.27
2023-05-23T13:08:29.224Z,22.49
2023-05-23T13:11:00.923Z,22.43
2023-05-23T13:13:32.425Z,22.86
2023-05-23T13:16:03.957Z,22.80
2023-05-23T13:18:35.451Z,22.59
2023-05-23T13:21:07.288Z,22.21
2023-05-23T13:23:38.780Z,21.74
2023-05-23T13:26:10.619Z,21.37
2023-05-23T13:28:42.105Z,20.97
2023-05-23T13:31:14.248Z,20.83
2023-05-23T13:33:45.746Z,20.73
2023-05-23T13:36:17.459Z,20.80
2023-05-23T13:38:49.298Z,20.63
2023-05-23T13:41:20.787Z,20.18
2023-05-23T13:43:52.703Z,20.17
2023-05-23T13:46:24.230Z,19.68
2023-05-23T13:48:56.309Z,19.40
2023-05-23T13:51:27.789Z,19.23
2023-05-23T13:53:59.616Z,18.97
2023-05-23T13:56:31.102Z,18.99
2023-05-23T13:59:02.955Z,18.99
2023-05-23T14:01:34.522Z,19.36
2023-05-23T14:04:07.300Z,19.73
2023-05-23T14:06:38.920Z,20.01
2023-05-23T14:09:10.769Z,19.90
2023-05-23T14:11:42.682Z,19.76
2023-05-23T14:14:14.168Z,19.76
2023-05-23T14:16:46.104Z,19.76
2023-05-23T14:19:17.742Z,19.67
2023-05-23T14:21:49.544Z,19.33
2023-05-23T14:24:21.068Z,19.17
2023-05-23T14:26:52.883Z,19.05
2023-05-23T14:29:24.413Z,18.80
2023-05-23T14:31:55.974Z,18.41
2023-05-23T14:34:27.489Z,18.48
2023-05-23T14:36:59.202Z,18.34
2023-05-23T14:39:30.723Z,18.08
2023-05-23T14:42:02.240Z,18.04
2023-05-23T14:44:33.795Z,18.11
2023-05-23T14:47:05.297Z,18.06
2023-05-23T14:49:36.826Z,17.93
2023-05-23T14:52:08.310Z,17.63
2023-05-23T14:54:39.801Z,17.69
2023-05-23T14:57:11.297Z,17.49
2023-05-23T14:59:43.134Z,17.44
2023-05-23T15:02:14.727Z,17.26
2023-05-23T15:04:46.413Z,17.26
2023-05-23T15:07:18.234Z,17.21
2023-05-23T15:09:49.746Z,17.17
2023-05-23T15:12:21.245Z,17.03
2023-05-23T15:14:52.717Z,16.60
2023-05-23T15:17:26.578Z,16.39
2023-05-23T15:19:58.464Z,15.93
2023-05-23T15:22:38.437Z,15.69
2023-05-23T15:25:11.118Z,15.58
2023-05-23T15:27:42.973Z,15.35
2023-05-23T15:30:15.032Z,15.37
2023-05-23T15:32:46.571Z,15.08
2023-05-23T15:35:19.725Z,15.16
2023-05-23T15:37:51.436Z,15.08
2023-05-23T15:40:22.960Z,15.12
2023-05-23T15:42:54.474Z,15.06
2023-05-23T15:45:26.160Z,15.26
2023-05-23T15:47:57.718Z,15.30
2023-05-23T15:50:29.259Z,15.46
2023-05-23T15:53:00.787Z,15.43
2023-05-23T15:55:32.593Z,15.36
2023-05-23T15:58:04.108Z,15.14
2023-05-23T16:00:35.611Z,15.05
2023-05-23T16:03:07.579Z,14.99
2023-05-23T16:05:39.299Z,15.03
2023-05-23T16:08:11.327Z,14.92
2023-05-23T16:10:42.801Z,14.80
2023-05-23T16:15:45.851Z,14.73
2023-05-23T16:18:17.703Z,14.81
2023-05-23T16:20:49.293Z,14.71
2023-05-23T16:23:21.153Z,14.74
2023-05-23T16:25:52.631Z,14.69
2023-05-23T16:28:24.404Z,14.80
2023-05-23T16:30:55.897Z,14.65
2023-05-23T16:33:27.452Z,14.67
2023-05-23T16:35:59.284Z,14.63
2023-05-23T16:38:30.783Z,14.54
2023-05-23T16:41:02.677Z,14.34
2023-05-23T16:43:34.201Z,14.18
2023-05-23T16:46:06.069Z,14.10
2023-05-23T16:48:37.584Z,14.13
2023-05-23T16:51:09.438Z,14.07
2023-05-23T16:53:40.935Z,13.90
2023-05-23T16:56:12.428Z,13.92
2023-05-23T16:58:43.901Z,13.88
2023-05-23T17:01:15.737Z,13.72
2023-05-23T17:03:47.751Z,13.59
2023-05-23T17:06:19.347Z,13.57
2023-05-23T17:08:51.185Z,13.50
2023-05-23T17:11:22.677Z,13.49
2023-05-23T17:13:54.175Z,13.49
2023-05-23T17:16:25.721Z,13.46
2023-05-23T17:18:57.787Z,13.42
2023-05-23T17:21:29.337Z,13.45
2023-05-23T17:24:01.248Z,13.43
2023-05-23T17:26:32.757Z,13.37
2023-05-23T17:29:04.268Z,13.19
2023-05-23T17:31:35.772Z,12.93
2023-05-23T17:34:07.308Z,13.05
2023-05-23T17:36:38.811Z,12.87
2023-05-23T17:39:10.419Z,12.83
2023-05-23T17:41:42.185Z,12.79
2023-05-23T17:44:13.703Z,12.71
2023-05-23T17:46:45.778Z,12.80
2023-05-23T17:49:17.311Z,12.66
2023-05-23T17:51:49.113Z,12.61
2023-05-23T17:54:20.605Z,12.62
2023-05-23T17:56:52.090Z,12.73
2023-05-23T17:59:23.606Z,12.61
2023-05-23T18:01:55.336Z,12.53
2023-05-23T18:04:26.861Z,12.46
2023-05-23T18:06:58.386Z,12.46
2023-05-23T18:09:30.398Z,12.48
2023-05-23T18:12:01.877Z,12.52
2023-05-23T18:14:33.497Z,12.45
2023-05-23T18:17:05.020Z,12.49
2023-05-23T18:19:36.696Z,12.52
2023-05-23T18:22:08.301Z,12.52
2023-05-23T18:24:39.807Z,12.41
2023-05-23T18:27:11.314Z,12.35
2023-05-23T18:29:43.285Z,12.41
2023-05-23T18:32:15.101Z,12.42
2023-05-23T18:34:46.580Z,12.42
2023-05-23T18:37:18.317Z,12.50
2023-05-23T18:39:49.861Z,12.48
2023-05-23T18:42:21.851Z,12.59
2023-05-23T18:44:53.331Z,12.60
2023-05-23T18:47:25.174Z,12.61
2023-05-23T18:49:56.670Z,12.60
2023-05-23T18:52:28.329Z,12.50
2023-05-23T18:54:59.835Z,12.48
2023-05-23T18:57:31.662Z,12.55
2023-05-23T19:00:03.531Z,12.52
2023-05-23T19:02:35.269Z,12.53
2023-05-23T19:05:07.131Z,12.53
2023-05-23T19:07:38.632Z,12.59
2023-05-23T19:10:10.454Z,12.59
2023-05-23T19:12:41.947Z,12.56
2023-05-23T19:15:13.923Z,12.55
2023-05-23T19:17:45.483Z,12.55
2023-05-23T19:20:17.174Z,12.53
2023-05-23T19:22:52.238Z,12.56
2023-05-23T19:25:24.503Z,12.58
2023-05-23T19:27:56.182Z,12.65
2023-05-23T19:30:27.671Z,12.67
2023-05-23T19:32:59.521Z,12.68
2023-05-23T19:35:31.070Z,12.70
2023-05-23T19:38:02.950Z,12.69
2023-05-23T19:40:34.472Z,12.72
2023-05-23T19:43:06.334Z,12.75
2023-05-23T19:45:37.880Z,12.75
2023-05-23T19:48:09.758Z,12.80
2023-05-23T19:50:41.460Z,12.82
2023-05-23T19:53:13.337Z,12.82
2023-05-23T19:55:45.157Z,12.82
2023-05-23T19:58:16.859Z,12.80
2023-05-23T20:00:48.376Z,12.75
2023-05-23T20:03:19.851Z,12.74
2023-05-23T20:05:51.369Z,11.78
2023-05-23T20:08:22.834Z,12.58
2023-05-23T20:10:54.812Z,12.57
2023-05-23T20:13:26.316Z,12.59
2023-05-23T20:15:57.870Z,12.60
2023-05-23T20:18:29.421Z,12.59
2023-05-23T20:21:03.520Z,12.46
2023-05-23T20:23:36.530Z,12.44
2023-05-23T20:26:09.690Z,12.32
2023-05-23T20:28:41.360Z,12.35
2023-05-23T20:31:12.880Z,12.29
2023-05-23T20:33:44.750Z,12.28
2023-05-23T20:36:16.218Z,12.23
2023-05-23T20:38:47.904Z,12.20
2023-05-23T20:41:19.477Z,12.17
2023-05-23T20:43:51.143Z,12.14
2023-05-23T20:46:22.763Z,12.10
2023-05-23T20:48:54.349Z,12.03
2023-05-23T20:51:25.848Z,12.05
2023-05-23T20:53:57.839Z,10.43
2023-05-23T20:56:29.648Z,11.95
2023-05-23T20:59:01.128Z,11.92
2023-05-23T21:01:33.067Z,11.83
2023-05-23T21:04:04.724Z,11.84
2023-05-23T21:06:36.243Z,11.82
2023-05-23T21:09:07.726Z,11.76
2023-05-23T21:11:39.238Z,11.72
2023-05-23T21:14:10.716Z,11.73
2023-05-23T21:16:42.455Z,11.71
2023-05-23T21:19:14.011Z,11.69
2023-05-23T21:21:45.640Z,11.64
2023-05-23T21:24:17.324Z,11.54
2023-05-23T21:26:48.847Z,11.48
2023-05-23T21:29:20.973Z,11.45
2023-05-23T21:31:52.574Z,11.34
2023-05-23T21:34:24.657Z,11.34
2023-05-23T21:36:56.203Z,11.27
2023-05-23T21:39:39.182Z,11.15
2023-05-23T21:42:14.748Z,11.21
2023-05-23T21:44:46.640Z,11.12
2023-05-23T21:47:18.201Z,11.09
2023-05-23T21:49:50.067Z,11.00
2023-05-23T21:52:21.823Z,11.01
2023-05-23T21:54:53.615Z,10.97
2023-05-23T21:57:25.280Z,10.96
2023-05-23T21:59:56.780Z,10.92
2023-05-23T22:02:28.631Z,10.88
2023-05-23T22:05:00.496Z,10.82
2023-05-23T22:07:32.050Z,10.81
2023-05-23T22:10:03.543Z,10.75
2023-05-23T22:12:35.138Z,10.77
2023-05-23T22:15:06.619Z,10.73
2023-05-23T22:17:38.328Z,10.67
2023-05-23T22:20:09.868Z,10.67
2023-05-23T22:22:41.709Z,10.65
2023-05-23T22:25:13.686Z,10.57
2023-05-23T22:27:45.209Z,10.62
2023-05-23T22:30:17.079Z,10.56
2023-05-23T22:32:48.800Z,10.54
2023-05-23T22:35:20.903Z,10.54
2023-05-23T22:37:52.398Z,10.52
2023-05-23T22:40:24.231Z,10.47
2023-05-23T22:42:55.717Z,10.41
2023-05-23T22:45:27.404Z,10.38
2023-05-23T22:47:58.907Z,10.39
2023-05-23T22:50:30.871Z,10.32
2023-05-23T22:53:02.393Z,10.23
2023-05-23T22:55:33.897Z,10.23
2023-05-23T22:58:05.649Z,10.19
2023-05-23T23:00:37.159Z,10.19
2023-05-23T23:03:09.077Z,10.19
2023-05-23T23:05:40.607Z,10.14
2023-05-23T23:08:12.436Z,10.12
2023-05-23T23:10:44.495Z,10.13
2023-05-23T23:13:16.546Z,10.11
2023-05-23T23:15:48.034Z,10.12
2023-05-23T23:18:19.885Z,10.07
2023-05-23T23:20:51.376Z,10.06
2023-05-23T23:23:22.868Z,10.03
2023-05-23T23:25:54.346Z,9.94
2023-05-23T23:28:26.210Z,9.93
2023-05-23T23:30:57.982Z,9.92
2023-05-23T23:33:29.487Z,9.89
2023-05-23T23:36:01.263Z,9.89
2023-05-23T23:38:32.744Z,9.86
2023-05-23T23:41:04.577Z,9.80
2023-05-23T23:43:36.044Z,9.82
2023-05-23T23:46:08.000Z,9.85
2023-05-23T23:48:39.520Z,9.82
2023-05-23T23:51:11.465Z,9.83
2023-05-23T23:53:43.778Z,9.81
2023-05-23T23:56:16.277Z,9.81
2023-05-23T23:58:47.950Z,9.77
